sensor_id;sensor_type;location;lat;lon;timestamp;pressure;altitude;pressure_sealevel;temperature;humidity
66801;BME280;53703;50.326;19.122;2024-03-23T00:55:46;98062.23;;;18.66;49.03
66801;BME280;53703;50.326;19.122;2024-03-23T00:58:15;98059.59;;;18.68;49.00
66801;BME280;53703;50.326;19.122;2024-03-23T01:00:44;98058.02;;;18.69;49.08
66801;BME280;53703;50.326;19.122;2024-03-23T01:03:13;98049.85;;;18.67;49.09
66801;BME280;53703;50.326;19.122;2024-03-23T01:05:42;98054.15;;;18.51;49.45
66801;BME280;53703;50.326;19.122;2024-03-23T01:08:11;98045.86;;;18.37;49.73
66801;BME280;53703;50.326;19.122;2024-03-23T01:10:40;98046.42;;;18.47;49.44
66801;BME280;53703;50.326;19.122;2024-03-23T01:13:09;98046.80;;;18.54;49.30
66801;BME280;53703;50.326;19.122;2024-03-23T01:15:38;98043.30;;;18.44;49.47
66801;BME280;53703;50.326;19.122;2024-03-23T01:18:07;98038.92;;;18.51;49.26
66801;BME280;53703;50.326;19.122;2024-03-23T01:20:36;98036.92;;;18.54;49.38
66801;BME280;53703;50.326;19.122;2024-03-23T01:23:05;98035.70;;;18.56;49.18
66801;BME280;53703;50.326;19.122;2024-03-23T01:25:33;98031.23;;;18.44;49.44
66801;BME280;53703;50.326;19.122;2024-03-23T01:28:03;98028.46;;;18.44;49.55
66801;BME280;53703;50.326;19.122;2024-03-23T01:30:35;98027.39;;;18.33;49.68
66801;BME280;53703;50.326;19.122;2024-03-23T01:33:04;98026.20;;;18.31;49.71
66801;BME280;53703;50.326;19.122;2024-03-23T01:35:33;98017.33;;;18.26;49.80
66801;BME280;53703;50.326;19.122;2024-03-23T01:38:02;98012.54;;;18.36;49.64
66801;BME280;53703;50.326;19.122;2024-03-23T01:40:30;98009.52;;;18.26;50.09
66801;BME280;53703;50.326;19.122;2024-03-23T01:43:07;98006.25;;;18.37;49.83
66801;BME280;53703;50.326;19.122;2024-03-23T01:45:36;98007.38;;;18.52;49.56
66801;BME280;53703;50.326;19.122;2024-03-23T01:48:06;98002.87;;;18.52;49.40
66801;BME280;53703;50.326;19.122;2024-03-23T01:50:35;97998.83;;;18.56;49.40
66801;BME280;53703;50.326;19.122;2024-03-23T01:53:04;97995.44;;;18.62;49.17
66801;BME280;53703;50.326;19.122;2024-03-23T01:55:34;97993.52;;;18.55;49.23
66801;BME280;53703;50.326;19.122;2024-03-23T01:58:03;97990.56;;;18.48;49.47
66801;BME280;53703;50.326;19.122;2024-03-23T02:00:32;97988.13;;;18.48;49.51
66801;BME280;53703;50.326;19.122;2024-03-23T02:03:01;97983.81;;;18.60;49.22
66801;BME280;53703;50.326;19.122;2024-03-23T02:05:30;97978.27;;;18.45;49.70
66801;BME280;53703;50.326;19.122;2024-03-23T02:07:58;97972.54;;;18.46;49.62
66801;BME280;53703;50.326;19.122;2024-03-23T02:10:27;97970.02;;;18.51;49.39
66801;BME280;53703;50.326;19.122;2024-03-23T02:12:56;97967.50;;;18.62;49.41
66801;BME280;53703;50.326;19.122;2024-03-23T02:15:25;97969.25;;;18.57;49.39
66801;BME280;53703;50.326;19.122;2024-03-23T02:17:53;97969.10;;;18.63;49.38
66801;BME280;53703;50.326;19.122;2024-03-23T02:20:22;97968.97;;;18.56;49.59
66801;BME280;53703;50.326;19.122;2024-03-23T02:22:53;97966.48;;;18.63;49.38
66801;BME280;53703;50.326;19.122;2024-03-23T02:25:22;97969.61;;;18.62;49.32
66801;BME280;53703;50.326;19.122;2024-03-23T02:27:51;97970.76;;;18.48;49.57
66801;BME280;53703;50.326;19.122;2024-03-23T02:30:21;97968.69;;;18.58;49.45
66801;BME280;53703;50.326;19.122;2024-03-23T02:32:50;97960.91;;;18.58;49.37
66801;BME280;53703;50.326;19.122;2024-03-23T02:35:19;97957.83;;;18.54;49.48
66801;BME280;53703;50.326;19.122;2024-03-23T02:37:48;97953.58;;;18.56;49.48
66801;BME280;53703;50.326;19.122;2024-03-23T02:40:18;97951.50;;;18.59;49.35
66801;BME280;53703;50.326;19.122;2024-03-23T02:42:46;97953.19;;;18.46;49.54
66801;BME280;53703;50.326;19.122;2024-03-23T02:45:15;97954.89;;;18.49;49.56
66801;BME280;53703;50.326;19.122;2024-03-23T02:47:44;97952.45;;;18.44;49.74
66801;BME280;53703;50.326;19.122;2024-03-23T02:50:13;97946.33;;;18.50;49.57
66801;BME280;53703;50.326;19.122;2024-03-23T02:52:43;97937.00;;;18.41;49.64
66801;BME280;53703;50.326;19.122;2024-03-23T02:55:12;97943.86;;;18.35;49.74
66801;BME280;53703;50.326;19.122;2024-03-23T02:57:41;97947.09;;;18.34;49.89
66801;BME280;53703;50.326;19.122;2024-03-23T03:00:10;97935.77;;;18.43;49.69
66801;BME280;53703;50.326;19.122;2024-03-23T03:02:40;97933.20;;;18.50;49.14
66801;BME280;53703;50.326;19.122;2024-03-23T03:05:09;97927.02;;;18.39;49.53
66801;BME280;53703;50.326;19.122;2024-03-23T03:07:38;97926.33;;;18.40;49.68
66801;BME280;53703;50.326;19.122;2024-03-23T03:10:08;97925.36;;;18.18;49.88
66801;BME280;53703;50.326;19.122;2024-03-23T03:12:38;97914.09;;;18.25;49.75
66801;BME280;53703;50.326;19.122;2024-03-23T03:15:08;97906.48;;;18.37;49.67
66801;BME280;53703;50.326;19.122;2024-03-23T03:17:37;97911.29;;;18.27;49.86
66801;BME280;53703;50.326;19.122;2024-03-23T03:20:06;97916.05;;;18.33;49.91
66801;BME280;53703;50.326;19.122;2024-03-23T03:22:35;97911.59;;;18.36;49.64
66801;BME280;53703;50.326;19.122;2024-03-23T03:25:05;97908.87;;;18.39;49.71
66801;BME280;53703;50.326;19.122;2024-03-23T03:27:34;97911.02;;;18.35;49.90
66801;BME280;53703;50.326;19.122;2024-03-23T03:30:04;97903.13;;;18.40;49.66
66801;BME280;53703;50.326;19.122;2024-03-23T03:32:34;97893.80;;;18.44;49.70
66801;BME280;53703;50.326;19.122;2024-03-23T03:35:04;97890.54;;;18.42;49.75
66801;BME280;53703;50.326;19.122;2024-03-23T03:37:32;97891.16;;;18.42;49.72
66801;BME280;53703;50.326;19.122;2024-03-23T03:40:01;97890.40;;;18.43;49.73
66801;BME280;53703;50.326;19.122;2024-03-23T03:42:30;97896.34;;;18.35;49.80
66801;BME280;53703;50.326;19.122;2024-03-23T03:44:59;97890.92;;;18.37;50.10
66801;BME280;53703;50.326;19.122;2024-03-23T03:47:28;97878.86;;;18.37;49.94
66801;BME280;53703;50.326;19.122;2024-03-23T03:49:57;97876.98;;;18.38;49.94
66801;BME280;53703;50.326;19.122;2024-03-23T03:52:26;97872.20;;;18.40;49.85
66801;BME280;53703;50.326;19.122;2024-03-23T03:55:03;97871.98;;;18.41;49.88
66801;BME280;53703;50.326;19.122;2024-03-23T03:57:33;97879.61;;;18.45;49.68
66801;BME280;53703;50.326;19.122;2024-03-23T04:00:02;97887.24;;;18.39;49.98
66801;BME280;53703;50.326;19.122;2024-03-23T04:02:32;97887.00;;;18.38;50.02
66801;BME280;53703;50.326;19.122;2024-03-23T04:05:01;97888.31;;;18.41;49.94
66801;BME280;53703;50.326;19.122;2024-03-23T04:07:31;97880.35;;;18.42;49.90
66801;BME280;53703;50.326;19.122;2024-03-23T04:10:00;97887.70;;;18.43;49.97
66801;BME280;53703;50.326;19.122;2024-03-23T04:12:28;97891.22;;;18.40;50.04
66801;BME280;53703;50.326;19.122;2024-03-23T04:14:57;97892.45;;;18.32;49.96
66801;BME280;53703;50.326;19.122;2024-03-23T04:17:27;97870.23;;;18.29;50.02
66801;BME280;53703;50.326;19.122;2024-03-23T04:20:00;97853.11;;;18.30;50.18
66801;BME280;53703;50.326;19.122;2024-03-23T04:22:29;97865.26;;;18.36;49.94
66801;BME280;53703;50.326;19.122;2024-03-23T04:24:58;97860.36;;;18.35;49.68
66801;BME280;53703;50.326;19.122;2024-03-23T04:27:27;97855.40;;;18.30;49.81
66801;BME280;53703;50.326;19.122;2024-03-23T04:29:56;97850.42;;;18.31;49.70
66801;BME280;53703;50.326;19.122;2024-03-23T04:32:24;97851.55;;;18.26;50.01
66801;BME280;53703;50.326;19.122;2024-03-23T04:34:54;97844.86;;;18.28;50.12
66801;BME280;53703;50.326;19.122;2024-03-23T04:37:23;97837.92;;;18.28;49.95
66801;BME280;53703;50.326;19.122;2024-03-23T04:39:52;97834.48;;;18.29;49.78
66801;BME280;53703;50.326;19.122;2024-03-23T04:42:21;97829.98;;;18.30;50.07
66801;BME280;53703;50.326;19.122;2024-03-23T04:44:50;97821.66;;;18.28;49.71
66801;BME280;53703;50.326;19.122;2024-03-23T04:47:19;97816.71;;;18.19;50.04
66801;BME280;53703;50.326;19.122;2024-03-23T04:49:48;97816.71;;;18.30;49.87
66801;BME280;53703;50.326;19.122;2024-03-23T04:52:17;97818.09;;;18.31;50.03
66801;BME280;53703;50.326;19.122;2024-03-23T04:54:46;97817.83;;;18.36;49.84
66801;BME280;53703;50.326;19.122;2024-03-23T04:57:15;97817.21;;;18.36;49.84
66801;BME280;53703;50.326;19.122;2024-03-23T04:59:44;97813.55;;;18.40;49.86
66801;BME280;53703;50.326;19.122;2024-03-23T05:02:14;97811.30;;;18.31;50.16
66801;BME280;53703;50.326;19.122;2024-03-23T05:04:43;97812.08;;;18.30;50.07
66801;BME280;53703;50.326;19.122;2024-03-23T05:07:12;97815.68;;;18.35;50.01
66801;BME280;53703;50.326;19.122;2024-03-23T05:09:41;97818.39;;;18.36;49.94
66801;BME280;53703;50.326;19.122;2024-03-23T05:12:09;97814.05;;;18.31;50.01
66801;BME280;53703;50.326;19.122;2024-03-23T05:14:38;97812.06;;;18.30;49.93
66801;BME280;53703;50.326;19.122;2024-03-23T05:17:07;97811.33;;;18.34;50.03
66801;BME280;53703;50.326;19.122;2024-03-23T05:19:36;97811.97;;;18.34;50.06
66801;BME280;53703;50.326;19.122;2024-03-23T05:22:05;97807.42;;;18.31;49.95
66801;BME280;53703;50.326;19.122;2024-03-23T05:24:34;97802.02;;;18.27;49.96
66801;BME280;53703;50.326;19.122;2024-03-23T05:27:03;97791.66;;;18.27;50.12
66801;BME280;53703;50.326;19.122;2024-03-23T05:29:32;97796.73;;;18.28;49.94
66801;BME280;53703;50.326;19.122;2024-03-23T05:32:01;97791.12;;;18.27;49.95
66801;BME280;53703;50.326;19.122;2024-03-23T05:34:29;97795.56;;;18.29;50.03
66801;BME280;53703;50.326;19.122;2024-03-23T05:36:58;97795.20;;;18.25;50.02
66801;BME280;53703;50.326;19.122;2024-03-23T05:39:29;97798.67;;;18.25;50.10
66801;BME280;53703;50.326;19.122;2024-03-23T05:41:57;97787.95;;;18.27;50.02
66801;BME280;53703;50.326;19.122;2024-03-23T05:44:26;97784.84;;;18.25;49.95
66801;BME280;53703;50.326;19.122;2024-03-23T05:46:55;97778.99;;;18.24;49.96
66801;BME280;53703;50.326;19.122;2024-03-23T05:49:24;97778.63;;;18.21;50.06
66801;BME280;53703;50.326;19.122;2024-03-23T05:51:53;97774.50;;;18.18;50.10
66801;BME280;53703;50.326;19.122;2024-03-23T05:54:22;97775.62;;;18.19;50.06
66801;BME280;53703;50.326;19.122;2024-03-23T05:56:55;97774.34;;;18.18;49.99
66801;BME280;53703;50.326;19.122;2024-03-23T05:59:23;97775.26;;;18.16;50.17
66801;BME280;53703;50.326;19.122;2024-03-23T06:01:52;97777.50;;;18.19;49.99
66801;BME280;53703;50.326;19.122;2024-03-23T06:04:21;97778.20;;;18.18;50.05
66801;BME280;53703;50.326;19.122;2024-03-23T06:06:51;97778.04;;;18.23;49.90
66801;BME280;53703;50.326;19.122;2024-03-23T06:09:20;97779.25;;;18.14;50.02
66801;BME280;53703;50.326;19.122;2024-03-23T06:11:49;97774.73;;;18.18;49.77
66801;BME280;53703;50.326;19.122;2024-03-23T06:14:18;97755.98;;;18.20;49.89
66801;BME280;53703;50.326;19.122;2024-03-23T06:16:47;97730.84;;;18.16;49.90
66801;BME280;53703;50.326;19.122;2024-03-23T06:19:16;97731.66;;;18.18;49.90
66801;BME280;53703;50.326;19.122;2024-03-23T06:21:45;97738.34;;;18.23;49.80
66801;BME280;53703;50.326;19.122;2024-03-23T06:24:14;97731.44;;;18.25;49.72
66801;BME280;53703;50.326;19.122;2024-03-23T06:26:43;97733.02;;;18.25;49.81
66801;BME280;53703;50.326;19.122;2024-03-23T06:29:12;97730.26;;;18.26;49.76
66801;BME280;53703;50.326;19.122;2024-03-23T06:31:41;97733.69;;;18.22;49.82
66801;BME280;53703;50.326;19.122;2024-03-23T06:34:10;97734.27;;;18.26;49.79
66801;BME280;53703;50.326;19.122;2024-03-23T06:36:38;97731.98;;;18.25;49.79
66801;BME280;53703;50.326;19.122;2024-03-23T06:39:07;97727.30;;;18.23;49.95
66801;BME280;53703;50.326;19.122;2024-03-23T06:41:40;97723.55;;;18.20;49.91
66801;BME280;53703;50.326;19.122;2024-03-23T06:44:08;97724.42;;;18.27;49.80
66801;BME280;53703;50.326;19.122;2024-03-23T06:46:37;97722.55;;;18.21;49.98
66801;BME280;53703;50.326;19.122;2024-03-23T06:49:06;97721.64;;;18.25;49.95
66801;BME280;53703;50.326;19.122;2024-03-23T06:51:36;97722.55;;;18.23;49.87
66801;BME280;53703;50.326;19.122;2024-03-23T06:54:05;97726.73;;;18.28;49.78
66801;BME280;53703;50.326;19.122;2024-03-23T06:56:34;97726.25;;;18.21;50.01
66801;BME280;53703;50.326;19.122;2024-03-23T06:59:02;97721.32;;;18.18;50.05
66801;BME280;53703;50.326;19.122;2024-03-23T07:01:31;97717.88;;;18.15;50.39
66801;BME280;53703;50.326;19.122;2024-03-23T07:04:00;97716.98;;;18.17;50.41
66801;BME280;53703;50.326;19.122;2024-03-23T07:06:31;97716.89;;;18.17;50.21
66801;BME280;53703;50.326;19.122;2024-03-23T07:09:00;97717.77;;;18.17;50.29
66801;BME280;53703;50.326;19.122;2024-03-23T07:11:28;97711.14;;;18.19;50.13
66801;BME280;53703;50.326;19.122;2024-03-23T07:13:57;97709.23;;;18.17;50.14
66801;BME280;53703;50.326;19.122;2024-03-23T07:16:30;97712.59;;;18.20;49.97
66801;BME280;53703;50.326;19.122;2024-03-23T07:18:59;97710.92;;;18.19;50.17
66801;BME280;53703;50.326;19.122;2024-03-23T07:21:28;97706.98;;;18.14;50.25
66801;BME280;53703;50.326;19.122;2024-03-23T07:23:57;97708.70;;;18.13;50.13
66801;BME280;53703;50.326;19.122;2024-03-23T07:26:26;97704.68;;;18.19;49.98
66801;BME280;53703;50.326;19.122;2024-03-23T07:28:55;97701.96;;;18.22;49.84
66801;BME280;53703;50.326;19.122;2024-03-23T07:31:24;97699.70;;;18.19;49.98
66801;BME280;53703;50.326;19.122;2024-03-23T07:33:53;97697.89;;;18.19;49.93
66801;BME280;53703;50.326;19.122;2024-03-23T07:36:21;97696.20;;;18.16;49.95
66801;BME280;53703;50.326;19.122;2024-03-23T07:38:50;97692.48;;;18.15;49.96
66801;BME280;53703;50.326;19.122;2024-03-23T07:41:34;97684.53;;;18.10;50.13
66801;BME280;53703;50.326;19.122;2024-03-23T07:44:04;97683.34;;;18.10;50.03
66801;BME280;53703;50.326;19.122;2024-03-23T07:46:32;97684.10;;;18.14;50.04
66801;BME280;53703;50.326;19.122;2024-03-23T07:49:01;97685.80;;;18.18;50.11
66801;BME280;53703;50.326;19.122;2024-03-23T07:51:30;97679.69;;;18.20;50.12
66801;BME280;53703;50.326;19.122;2024-03-23T07:54:00;97674.20;;;18.22;49.88
66801;BME280;53703;50.326;19.122;2024-03-23T07:56:29;97668.49;;;18.21;49.98
66801;BME280;53703;50.326;19.122;2024-03-23T07:58:57;97670.35;;;18.17;49.96
66801;BME280;53703;50.326;19.122;2024-03-23T08:01:26;97665.39;;;18.19;49.87
66801;BME280;53703;50.326;19.122;2024-03-23T08:03:55;97663.40;;;18.17;49.90
66801;BME280;53703;50.326;19.122;2024-03-23T08:06:24;97655.89;;;18.16;50.07
66801;BME280;53703;50.326;19.122;2024-03-23T08:08:58;97650.62;;;18.12;50.11
66801;BME280;53703;50.326;19.122;2024-03-23T08:11:31;97643.27;;;18.16;50.04
66801;BME280;53703;50.326;19.122;2024-03-23T08:14:02;97636.75;;;18.19;50.00
66801;BME280;53703;50.326;19.122;2024-03-23T08:16:32;97634.27;;;18.22;49.76
66801;BME280;53703;50.326;19.122;2024-03-23T08:19:01;97634.98;;;18.17;49.98
66801;BME280;53703;50.326;19.122;2024-03-23T08:21:31;97630.17;;;18.23;49.79
66801;BME280;53703;50.326;19.122;2024-03-23T08:24:00;97621.71;;;18.21;49.72
66801;BME280;53703;50.326;19.122;2024-03-23T08:26:28;97620.17;;;18.18;49.95
66801;BME280;53703;50.326;19.122;2024-03-23T08:28:57;97616.30;;;18.18;49.88
66801;BME280;53703;50.326;19.122;2024-03-23T08:31:26;97609.45;;;18.18;50.04
66801;BME280;53703;50.326;19.122;2024-03-23T08:33:55;97610.41;;;18.20;49.90
66801;BME280;53703;50.326;19.122;2024-03-23T08:36:23;97602.79;;;18.21;49.89
66801;BME280;53703;50.326;19.122;2024-03-23T08:38:52;97595.02;;;18.19;49.94
66801;BME280;53703;50.326;19.122;2024-03-23T08:41:22;97586.86;;;18.17;50.11
66801;BME280;53703;50.326;19.122;2024-03-23T08:43:51;97581.45;;;18.13;50.26
66801;BME280;53703;50.326;19.122;2024-03-23T08:46:20;97575.64;;;18.15;50.30
66801;BME280;53703;50.326;19.122;2024-03-23T08:48:49;97571.57;;;18.17;50.39
66801;BME280;53703;50.326;19.122;2024-03-23T08:51:19;97565.05;;;18.20;50.45
66801;BME280;53703;50.326;19.122;2024-03-23T08:53:48;97559.02;;;18.17;50.68
66801;BME280;53703;50.326;19.122;2024-03-23T08:56:17;97555.09;;;18.18;50.60
66801;BME280;53703;50.326;19.122;2024-03-23T08:58:47;97550.84;;;18.19;50.63
66801;BME280;53703;50.326;19.122;2024-03-23T09:01:16;97543.89;;;18.12;51.06
66801;BME280;53703;50.326;19.122;2024-03-23T09:03:45;97540.98;;;18.12;50.96
66801;BME280;53703;50.326;19.122;2024-03-23T09:06:14;97542.23;;;18.12;51.09
66801;BME280;53703;50.326;19.122;2024-03-23T09:08:43;97532.08;;;18.13;51.27
66801;BME280;53703;50.326;19.122;2024-03-23T09:11:13;97523.83;;;18.16;51.35
66801;BME280;53703;50.326;19.122;2024-03-23T09:13:42;97527.60;;;18.16;50.01
66801;BME280;53703;50.326;19.122;2024-03-23T09:16:10;97515.06;;;17.97;47.90
66801;BME280;53703;50.326;19.122;2024-03-23T09:18:40;97516.77;;;18.06;48.71
66801;BME280;53703;50.326;19.122;2024-03-23T09:21:12;97510.34;;;18.16;46.85
66801;BME280;53703;50.326;19.122;2024-03-23T09:23:48;97506.84;;;18.07;46.10
66801;BME280;53703;50.326;19.122;2024-03-23T09:26:18;97507.41;;;18.09;47.17
66801;BME280;53703;50.326;19.122;2024-03-23T09:28:50;97496.64;;;18.13;46.30
66801;BME280;53703;50.326;19.122;2024-03-23T09:31:19;97490.21;;;18.15;45.02
66801;BME280;53703;50.326;19.122;2024-03-23T09:33:48;97479.45;;;18.13;45.64
66801;BME280;53703;50.326;19.122;2024-03-23T09:36:18;97470.44;;;18.19;44.71
66801;BME280;53703;50.326;19.122;2024-03-23T09:38:47;97457.42;;;18.28;45.14
66801;BME280;53703;50.326;19.122;2024-03-23T09:41:17;97441.99;;;18.32;44.48
66801;BME280;53703;50.326;19.122;2024-03-23T09:43:46;97444.47;;;18.36;44.57
66801;BME280;53703;50.326;19.122;2024-03-23T09:46:15;97438.20;;;18.24;43.58
66801;BME280;53703;50.326;19.122;2024-03-23T09:48:46;97439.02;;;18.08;43.58
66801;BME280;53703;50.326;19.122;2024-03-23T09:51:15;97444.40;;;18.27;44.11
66801;BME280;53703;50.326;19.122;2024-03-23T09:53:44;97435.46;;;18.25;44.52
66801;BME280;53703;50.326;19.122;2024-03-23T09:56:13;97428.84;;;18.36;43.41
66801;BME280;53703;50.326;19.122;2024-03-23T09:58:42;97429.15;;;18.34;43.06
66801;BME280;53703;50.326;19.122;2024-03-23T10:01:11;97422.44;;;18.35;43.45
66801;BME280;53703;50.326;19.122;2024-03-23T10:03:46;97412.79;;;18.29;44.37
66801;BME280;53703;50.326;19.122;2024-03-23T10:06:21;97402.86;;;18.32;43.36
66801;BME280;53703;50.326;19.122;2024-03-23T10:08:51;97398.04;;;18.33;43.32
66801;BME280;53703;50.326;19.122;2024-03-23T10:11:20;97396.92;;;18.32;43.78
66801;BME280;53703;50.326;19.122;2024-03-23T10:13:50;97387.16;;;18.23;43.71
66801;BME280;53703;50.326;19.122;2024-03-23T10:16:23;97385.23;;;18.27;43.49
66801;BME280;53703;50.326;19.122;2024-03-23T10:18:54;97384.17;;;18.35;42.61
66801;BME280;53703;50.326;19.122;2024-03-23T10:21:23;97379.84;;;18.26;42.43
66801;BME280;53703;50.326;19.122;2024-03-23T10:23:52;97382.17;;;18.31;42.36
66801;BME280;53703;50.326;19.122;2024-03-23T10:26:25;97377.48;;;18.26;42.81
66801;BME280;53703;50.326;19.122;2024-03-23T10:28:58;97374.20;;;18.18;44.92
66801;BME280;53703;50.326;19.122;2024-03-23T10:31:30;97364.56;;;18.18;44.00
66801;BME280;53703;50.326;19.122;2024-03-23T10:33:59;97357.89;;;18.22;44.37
66801;BME280;53703;50.326;19.122;2024-03-23T10:36:29;97341.40;;;18.23;44.67
66801;BME280;53703;50.326;19.122;2024-03-23T10:38:58;97337.46;;;18.23;45.08
66801;BME280;53703;50.326;19.122;2024-03-23T10:41:31;97332.48;;;18.22;45.55
66801;BME280;53703;50.326;19.122;2024-03-23T10:44:01;97329.80;;;18.22;46.17
66801;BME280;53703;50.326;19.122;2024-03-23T10:46:30;97323.44;;;18.27;45.89
66801;BME280;53703;50.326;19.122;2024-03-23T10:48:59;97321.33;;;18.29;46.35
66801;BME280;53703;50.326;19.122;2024-03-23T10:51:28;97316.67;;;18.29;46.36
66801;BME280;53703;50.326;19.122;2024-03-23T10:53:58;97309.35;;;18.32;46.13
66801;BME280;53703;50.326;19.122;2024-03-23T10:56:28;97305.83;;;18.23;46.37
66801;BME280;53703;50.326;19.122;2024-03-23T10:59:02;97300.37;;;18.23;46.44
66801;BME280;53703;50.326;19.122;2024-03-23T11:01:33;97298.08;;;18.20;46.66
66801;BME280;53703;50.326;19.122;2024-03-23T11:04:02;97290.14;;;18.23;46.73
66801;BME280;53703;50.326;19.122;2024-03-23T11:06:37;97290.59;;;18.22;46.79
66801;BME280;53703;50.326;19.122;2024-03-23T11:15:04;97249.68;;;18.16;47.67
66801;BME280;53703;50.326;19.122;2024-03-23T11:17:34;97242.84;;;18.19;47.11
66801;BME280;53703;50.326;19.122;2024-03-23T11:20:05;97239.77;;;18.21;47.01
66801;BME280;53703;50.326;19.122;2024-03-23T11:22:45;97229.59;;;18.19;47.08
66801;BME280;53703;50.326;19.122;2024-03-23T11:25:21;97224.61;;;18.18;47.36
66801;BME280;53703;50.326;19.122;2024-03-23T11:28:09;97218.86;;;18.19;47.34
66801;BME280;53703;50.326;19.122;2024-03-23T11:30:39;97199.30;;;18.21;47.62
66801;BME280;53703;50.326;19.122;2024-03-23T11:33:08;97186.92;;;18.22;47.76
66801;BME280;53703;50.326;19.122;2024-03-23T11:35:40;97190.65;;;18.26;47.87
66801;BME280;53703;50.326;19.122;2024-03-23T11:38:12;97187.36;;;18.13;48.28
66801;BME280;53703;50.326;19.122;2024-03-23T11:40:45;97173.77;;;18.23;47.95
66801;BME280;53703;50.326;19.122;2024-03-23T11:43:18;97166.58;;;18.24;48.14
66801;BME280;53703;50.326;19.122;2024-03-23T11:45:52;97159.39;;;18.22;48.33
66801;BME280;53703;50.326;19.122;2024-03-23T11:48:23;97153.25;;;18.10;48.58
66801;BME280;53703;50.326;19.122;2024-03-23T11:50:57;97148.56;;;18.22;47.73
66801;BME280;53703;50.326;19.122;2024-03-23T11:53:26;97133.36;;;18.21;47.82
66801;BME280;53703;50.326;19.122;2024-03-23T11:55:59;97124.98;;;18.19;47.77
66801;BME280;53703;50.326;19.122;2024-03-23T11:58:29;97123.50;;;18.20;47.80
66801;BME280;53703;50.326;19.122;2024-03-23T12:01:00;97123.32;;;18.18;47.99
66801;BME280;53703;50.326;19.122;2024-03-23T12:03:31;97119.80;;;18.23;47.93
66801;BME280;53703;50.326;19.122;2024-03-23T12:06:04;97114.56;;;18.18;47.96
66801;BME280;53703;50.326;19.122;2024-03-23T12:08:34;97107.01;;;18.20;48.05
66801;BME280;53703;50.326;19.122;2024-03-23T12:11:10;97098.71;;;18.18;48.06
66801;BME280;53703;50.326;19.122;2024-03-23T12:13:40;97081.83;;;18.18;48.04
66801;BME280;53703;50.326;19.122;2024-03-23T12:16:17;97069.73;;;18.15;48.26
66801;BME280;53703;50.326;19.122;2024-03-23T12:18:49;97065.65;;;18.17;48.40
66801;BME280;53703;50.326;19.122;2024-03-23T12:21:18;97057.27;;;18.12;48.61
66801;BME280;53703;50.326;19.122;2024-03-23T12:23:49;97062.35;;;18.20;48.90
66801;BME280;53703;50.326;19.122;2024-03-23T12:26:18;97046.34;;;18.23;48.70
66801;BME280;53703;50.326;19.122;2024-03-23T12:28:47;97041.92;;;18.20;49.55
66801;BME280;53703;50.326;19.122;2024-03-23T12:31:16;97032.20;;;18.11;49.98
66801;BME280;53703;50.326;19.122;2024-03-23T12:33:45;97030.39;;;18.15;50.49
66801;BME280;53703;50.326;19.122;2024-03-23T12:36:14;97018.40;;;18.15;50.78
66801;BME280;53703;50.326;19.122;2024-03-23T12:39:00;97016.11;;;18.18;50.24
66801;BME280;53703;50.326;19.122;2024-03-23T12:41:29;97015.98;;;18.29;49.94
66801;BME280;53703;50.326;19.122;2024-03-23T12:43:58;97011.25;;;18.30;49.99
66801;BME280;53703;50.326;19.122;2024-03-23T12:46:27;97005.09;;;18.26;49.86
66801;BME280;53703;50.326;19.122;2024-03-23T12:48:56;96994.98;;;18.24;49.41
66801;BME280;53703;50.326;19.122;2024-03-23T12:51:25;96986.85;;;18.17;48.50
66801;BME280;53703;50.326;19.122;2024-03-23T12:53:54;96978.25;;;18.16;48.21
66801;BME280;53703;50.326;19.122;2024-03-23T12:56:23;96967.93;;;18.20;47.25
66801;BME280;53703;50.326;19.122;2024-03-23T12:58:51;96970.77;;;18.20;47.29
66801;BME280;53703;50.326;19.122;2024-03-23T13:01:21;96964.61;;;18.17;47.41
66801;BME280;53703;50.326;19.122;2024-03-23T13:03:50;96963.34;;;18.15;47.67
66801;BME280;53703;50.326;19.122;2024-03-23T13:06:19;96963.34;;;18.16;47.78
66801;BME280;53703;50.326;19.122;2024-03-23T13:08:48;96962.39;;;18.13;47.95
66801;BME280;53703;50.326;19.122;2024-03-23T13:11:18;96954.52;;;18.16;47.84
66801;BME280;53703;50.326;19.122;2024-03-23T13:13:47;96949.05;;;18.10;48.09
66801;BME280;53703;50.326;19.122;2024-03-23T13:16:16;96947.17;;;18.12;48.01
66801;BME280;53703;50.326;19.122;2024-03-23T13:18:45;96950.63;;;18.09;48.15
66801;BME280;53703;50.326;19.122;2024-03-23T13:21:14;96940.68;;;18.07;48.17
66801;BME280;53703;50.326;19.122;2024-03-23T13:23:47;96936.82;;;18.08;48.09
66801;BME280;53703;50.326;19.122;2024-03-23T13:26:17;96936.90;;;18.09;48.15
66801;BME280;53703;50.326;19.122;2024-03-23T13:28:48;96938.52;;;18.05;48.19
66801;BME280;53703;50.326;19.122;2024-03-23T13:31:17;96941.52;;;18.02;48.30
66801;BME280;53703;50.326;19.122;2024-03-23T13:33:47;96940.17;;;18.02;48.27
66801;BME280;53703;50.326;19.122;2024-03-23T13:36:16;96950.03;;;18.02;48.19
66801;BME280;53703;50.326;19.122;2024-03-23T13:38:44;96956.73;;;18.01;48.31
66801;BME280;53703;50.326;19.122;2024-03-23T13:41:13;96966.36;;;18.04;48.15
66801;BME280;53703;50.326;19.122;2024-03-23T13:43:42;96981.34;;;18.02;48.30
66801;BME280;53703;50.326;19.122;2024-03-23T13:46:11;97027.48;;;18.04;48.15
66801;BME280;53703;50.326;19.122;2024-03-23T13:48:39;97139.39;;;18.03;48.26
66801;BME280;53703;50.326;19.122;2024-03-23T13:51:09;97154.14;;;18.01;48.29
66801;BME280;53703;50.326;19.122;2024-03-23T13:53:39;97181.18;;;18.01;48.38
66801;BME280;53703;50.326;19.122;2024-03-23T13:56:07;97215.65;;;18.00;48.35
66801;BME280;53703;50.326;19.122;2024-03-23T13:58:36;97237.94;;;17.98;48.50
66801;BME280;53703;50.326;19.122;2024-03-23T14:01:07;97247.27;;;18.00;48.34
66801;BME280;53703;50.326;19.122;2024-03-23T14:03:35;97252.17;;;18.01;48.33